M/V Eren C — 3EDF4 — position and weather

sailwx.info

Track history (hours):
 
Tides and Currents Weather Stations Pressure Air Temp Water Temp Dewpoint Dewpoint Depression Visibility Wind Speed Wind Dir Waves Ship Positions

M/V Eren C

Last reported at 2017-Oct-18 22:07 UTC. Time now 2017-Oct-19 18:36 UTC.
Position N 40°44' E 029°21'.

Length 128 m; draft 7.9 m.

Type: Ship. MMSI: 371564000.

Date/timePositionNaut miles runAvg speedWind from/ knotsBaromVisibWave heightAir tempDewpointWater temp
2017-Oct-18 22:07N 40°44' E 029°21'2 7.4
2017-Oct-18 21:53N 40°44' E 029°19'4 9.7
2017-Oct-18 21:30N 40°46' E 029°15'5 9.8
2017-Oct-18 21:00N 40°49' E 029°09'5 9.8
2017-Oct-18 20:30N 40°50' E 029°03'26 2.8
2017-Oct-18 11:23N 41°16' E 029°04'0 0.0
2017-Oct-18 10:59N 41°16' E 029°04'0 0.0
2017-Oct-18 10:23N 41°16' E 029°04'0 0.3
2017-Oct-18 09:56N 41°16' E 029°04'14 9.6
2017-Oct-18 08:31N 41°28' E 029°14'0 9.7
2017-Oct-18 08:29N 41°28' E 029°14'5 9.8
2017-Oct-18 08:00N 41°31' E 029°19'5 9.4
2017-Oct-18 07:30N 41°35' E 029°22'8 9.5
2017-Oct-18 06:38N 41°42' E 029°29'1 9.8
2017-Oct-18 06:30N 41°43' E 029°30'11410.0
2017-Oct-17 19:05N 42°55' E 031°30'253 9.0
2017-Oct-16 14:56N 45°09' E 036°29'4 9.2
2017-Oct-16 14:30N 45°12' E 036°28'8 8.0
2017-Oct-16 13:30N 45°19' E 036°33'5 9.6
2017-Oct-16 13:00N 45°21' E 036°39'4 8.6
2017-Oct-16 12:30N 45°26' E 036°41'2 3.1
2017-Oct-16 12:00N 45°27' E 036°41'3 6.5
2017-Oct-16 11:30N 45°30' E 036°38'1 1.5
2017-Oct-16 10:31N 45°31' E 036°37'0 0.0
2017-Oct-16 09:16N 45°31' E 036°37'0 0.0
2017-Oct-16 08:58N 45°31' E 036°37'0 0.0
2017-Oct-16 07:52N 45°31' E 036°37'0 0.0
2017-Oct-16 07:28N 45°31' E 036°37'0 0.0
2017-Oct-16 06:58N 45°31' E 036°37'0 0.0
2017-Oct-16 06:28N 45°31' E 036°37'0 0.0
2017-Oct-16 05:55N 45°31' E 036°37'0 0.0
2017-Oct-16 05:22N 45°31' E 036°37'0 0.0
2017-Oct-16 04:58N 45°31' E 036°37'0 0.0
2017-Oct-16 04:10N 45°31' E 036°37'0 0.0
2017-Oct-16 03:55N 45°31' E 036°37'0 0.0
2017-Oct-16 03:28N 45°31' E 036°37'0 0.0
2017-Oct-16 02:49N 45°31' E 036°37'0 0.0
2017-Oct-16 02:28N 45°31' E 036°37'0 0.0
2017-Oct-16 01:49N 45°31' E 036°37'0 0.2
2017-Oct-16 01:22N 45°31' E 036°37'2 4.6
2017-Oct-16 01:00N 45°32' E 036°38'4 8.9
2017-Oct-16 00:30N 45°37' E 036°39'  
2017-Oct-13 19:39N 45°40' E 036°45'210.9
2017-Oct-13 19:31N 45°38' E 036°45'610.8
2017-Oct-13 18:57N 45°32' E 036°44'510.9
2017-Oct-13 18:30N 45°28' E 036°42'510.6
2017-Oct-13 18:00N 45°23' E 036°40'5 9.9
2017-Oct-13 17:31N 45°20' E 036°34'510.5
2017-Oct-13 17:01N 45°16' E 036°29'5 9.0
2017-Oct-13 16:31N 45°12' E 036°28'1 0.8
2017-Oct-13 15:15N 45°11' E 036°29'0 0.0
2017-Oct-13 14:57N 45°11' E 036°29'0 0.0
2017-Oct-13 14:24N 45°11' E 036°29'0 0.0
2017-Oct-13 14:00N 45°11' E 036°29'0 0.0
2017-Oct-13 13:30N 45°11' E 036°29'0 0.0
2017-Oct-13 12:57N 45°11' E 036°29'0 0.0
2017-Oct-13 12:27N 45°11' E 036°29'0 0.0
2017-Oct-13 11:57N 45°11' E 036°29'0 0.0
2017-Oct-13 11:27N 45°11' E 036°29'0 0.1
2017-Oct-13 11:00N 45°11' E 036°29'0 0.0
2017-Oct-13 10:27N 45°11' E 036°29'0 0.0
2017-Oct-13 09:58N 45°11' E 036°29'0 0.0
2017-Oct-13 09:23N 45°11' E 036°29'0 0.0
2017-Oct-13 08:40N 45°11' E 036°29'0 0.0
2017-Oct-13 08:26N 45°11' E 036°29'0 0.0
2017-Oct-13 07:59N 45°11' E 036°29'0 0.0
2017-Oct-13 07:10N 45°11' E 036°29'0 0.0
2017-Oct-13 06:58N 45°11' E 036°29'0 0.0
2017-Oct-13 06:28N 45°11' E 036°29'0 0.0
2017-Oct-13 05:58N 45°11' E 036°29'0 0.0
2017-Oct-13 05:28N 45°11' E 036°29'0 0.0
2017-Oct-13 04:58N 45°11' E 036°29'0 0.0
2017-Oct-13 04:25N 45°11' E 036°29'0 0.0
2017-Oct-13 02:19N 45°11' E 036°29'0 0.0
2017-Oct-13 01:58N 45°11' E 036°29'0 0.0
2017-Oct-13 01:29N 45°11' E 036°29'0 0.0
2017-Oct-13 00:49N 45°11' E 036°29'0 0.0
2017-Oct-13 00:25N 45°11' E 036°29'0 0.0
2017-Oct-12 23:58N 45°11' E 036°29'0 0.0
2017-Oct-12 23:25N 45°11' E 036°29'0 0.0
2017-Oct-12 22:13N 45°11' E 036°29'0 0.0
2017-Oct-12 21:50N 45°11' E 036°29'0 0.0
2017-Oct-12 21:28N 45°11' E 036°29'0 0.0
2017-Oct-12 20:58N 45°11' E 036°29'0 0.0
2017-Oct-12 20:13N 45°11' E 036°29'0 0.0
2017-Oct-12 19:55N 45°11' E 036°29'0 0.0
2017-Oct-12 19:19N 45°11' E 036°29'0 0.0
2017-Oct-12 18:46N 45°11' E 036°29'0 0.0
2017-Oct-12 18:22N 45°11' E 036°29'0 0.0
2017-Oct-12 17:58N 45°11' E 036°29'0 0.0
2017-Oct-12 16:16N 45°11' E 036°29'0 0.0
2017-Oct-12 15:49N 45°11' E 036°29'0 0.0
2017-Oct-12 15:29N 45°11' E 036°29'0 0.0
2017-Oct-12 14:46N 45°11' E 036°29'0 0.0
2017-Oct-12 14:20N 45°11' E 036°29'0 0.0
2017-Oct-12 13:58N 45°11' E 036°29'0 0.0
2017-Oct-12 13:22N 45°11' E 036°29'0 0.0
2017-Oct-12 12:59N 45°11' E 036°29'0 0.0
2017-Oct-12 12:25N 45°11' E 036°29'0 0.0
2017-Oct-12 11:49N 45°11' E 036°29'0 0.0
2017-Oct-12 11:28N 45°11' E 036°29'0 0.0
2017-Oct-12 10:32N 45°11' E 036°29'0 0.1
2017-Oct-12 10:28N 45°11' E 036°29'0 0.0
2017-Oct-12 09:59N 45°11' E 036°29'0 0.0
2017-Oct-12 09:28N 45°11' E 036°29'0 0.0
2017-Oct-12 08:56N 45°11' E 036°29'0 0.1
2017-Oct-12 08:28N 45°11' E 036°29'0 0.1
2017-Oct-12 07:58N 45°11' E 036°29'0 0.0
2017-Oct-12 07:29N 45°11' E 036°29'0 0.0
2017-Oct-12 06:58N 45°11' E 036°29'0 0.0
2017-Oct-12 06:29N 45°11' E 036°29'0 0.0
2017-Oct-12 05:56N 45°11' E 036°29'0 0.0
2017-Oct-12 05:28N 45°11' E 036°29'0 0.0
2017-Oct-12 04:58N 45°11' E 036°29'0 0.0
2017-Oct-12 04:29N 45°11' E 036°29'0 0.0
2017-Oct-12 03:52N 45°11' E 036°29'0 0.0
2017-Oct-12 03:23N 45°11' E 036°29'0 0.0
2017-Oct-12 02:59N 45°11' E 036°29'0 0.1
2017-Oct-12 02:29N 45°11' E 036°29'0 0.0
2017-Oct-12 01:59N 45°11' E 036°29'0 0.0
2017-Oct-12 01:28N 45°11' E 036°29'0 0.0
2017-Oct-12 00:55N 45°11' E 036°29'0 0.0
2017-Oct-12 00:26N 45°11' E 036°29'0 0.0
2017-Oct-11 23:56N 45°11' E 036°29'0 0.0
2017-Oct-11 23:28N 45°11' E 036°29'0 0.0
2017-Oct-11 22:59N 45°11' E 036°29'0 0.0
2017-Oct-11 22:29N 45°11' E 036°29'0 0.0
2017-Oct-11 21:59N 45°11' E 036°29'0 0.1
2017-Oct-11 21:28N 45°11' E 036°29'0 0.0
2017-Oct-11 20:56N 45°11' E 036°29'0 0.0
2017-Oct-11 20:28N 45°11' E 036°29'0 0.0
2017-Oct-11 19:58N 45°11' E 036°29'0 0.0
2017-Oct-11 19:29N 45°11' E 036°29'0 0.1
2017-Oct-11 18:59N 45°11' E 036°29'0 0.0
2017-Oct-11 18:28N 45°11' E 036°29'0 0.0
2017-Oct-11 17:58N 45°11' E 036°29'0 0.0
2017-Oct-11 17:28N 45°11' E 036°29'0 0.0
2017-Oct-11 16:58N 45°11' E 036°29'414 8.0
2017-Oct-09 13:20N 40°59' E 028°60'3 8.7
2017-Oct-09 12:59N 40°57' E 028°57'0 0.1
2017-Oct-09 06:52N 40°57' E 028°57'4 9.4
2017-Oct-09 06:29N 40°54' E 028°56'510.1
2017-Oct-09 06:00N 40°51' E 028°50'  
Track history (hours):
 
Tides and Currents Weather Stations Pressure Air Temp Water Temp Dewpoint Dewpoint Depression Visibility Wind Speed Wind Dir Waves Ship Positions

M/V Eren C

Last reported at 2017-Oct-18 22:07 UTC. Time now 2017-Oct-19 18:36 UTC.
Position N 40°44' E 029°21'.

Length 128 m; draft 7.9 m.

Type: Ship. MMSI: 371564000.

Date/timePositionNaut miles runAvg speedWind from/ knotsBaromVisibWave heightAir tempDewpointWater temp
2017-Oct-18 22:07N 40°44' E 029°21'2 7.4
2017-Oct-18 21:53N 40°44' E 029°19'4 9.7
2017-Oct-18 21:30N 40°46' E 029°15'5 9.8
2017-Oct-18 21:00N 40°49' E 029°09'5 9.8
2017-Oct-18 20:30N 40°50' E 029°03'26 2.8
2017-Oct-18 11:23N 41°16' E 029°04'0 0.0
2017-Oct-18 10:59N 41°16' E 029°04'0 0.0
2017-Oct-18 10:23N 41°16' E 029°04'0 0.3
2017-Oct-18 09:56N 41°16' E 029°04'14 9.6
2017-Oct-18 08:31N 41°28' E 029°14'0 9.7
2017-Oct-18 08:29N 41°28' E 029°14'5 9.8
2017-Oct-18 08:00N 41°31' E 029°19'5 9.4
2017-Oct-18 07:30N 41°35' E 029°22'8 9.5
2017-Oct-18 06:38N 41°42' E 029°29'1 9.8
2017-Oct-18 06:30N 41°43' E 029°30'11410.0
2017-Oct-17 19:05N 42°55' E 031°30'253 9.0
2017-Oct-16 14:56N 45°09' E 036°29'4 9.2
2017-Oct-16 14:30N 45°12' E 036°28'8 8.0
2017-Oct-16 13:30N 45°19' E 036°33'5 9.6
2017-Oct-16 13:00N 45°21' E 036°39'4 8.6
2017-Oct-16 12:30N 45°26' E 036°41'2 3.1
2017-Oct-16 12:00N 45°27' E 036°41'3 6.5
2017-Oct-16 11:30N 45°30' E 036°38'1 1.5
2017-Oct-16 10:31N 45°31' E 036°37'0 0.0
2017-Oct-16 09:16N 45°31' E 036°37'0 0.0
2017-Oct-16 08:58N 45°31' E 036°37'0 0.0
2017-Oct-16 07:52N 45°31' E 036°37'0 0.0
2017-Oct-16 07:28N 45°31' E 036°37'0 0.0
2017-Oct-16 06:58N 45°31' E 036°37'0 0.0
2017-Oct-16 06:28N 45°31' E 036°37'0 0.0
2017-Oct-16 05:55N 45°31' E 036°37'0 0.0
2017-Oct-16 05:22N 45°31' E 036°37'0 0.0
2017-Oct-16 04:58N 45°31' E 036°37'0 0.0
2017-Oct-16 04:10N 45°31' E 036°37'0 0.0
2017-Oct-16 03:55N 45°31' E 036°37'0 0.0
2017-Oct-16 03:28N 45°31' E 036°37'0 0.0
2017-Oct-16 02:49N 45°31' E 036°37'0 0.0
2017-Oct-16 02:28N 45°31' E 036°37'0 0.0
2017-Oct-16 01:49N 45°31' E 036°37'0 0.2
2017-Oct-16 01:22N 45°31' E 036°37'2 4.6
2017-Oct-16 01:00N 45°32' E 036°38'4 8.9
2017-Oct-16 00:30N 45°37' E 036°39'  
2017-Oct-13 19:39N 45°40' E 036°45'210.9
2017-Oct-13 19:31N 45°38' E 036°45'610.8
2017-Oct-13 18:57N 45°32' E 036°44'510.9
2017-Oct-13 18:30N 45°28' E 036°42'510.6
2017-Oct-13 18:00N 45°23' E 036°40'5 9.9
2017-Oct-13 17:31N 45°20' E 036°34'510.5
2017-Oct-13 17:01N 45°16' E 036°29'5 9.0
2017-Oct-13 16:31N 45°12' E 036°28'1 0.8
2017-Oct-13 15:15N 45°11' E 036°29'0 0.0
2017-Oct-13 14:57N 45°11' E 036°29'0 0.0
2017-Oct-13 14:24N 45°11' E 036°29'0 0.0
2017-Oct-13 14:00N 45°11' E 036°29'0 0.0
2017-Oct-13 13:30N 45°11' E 036°29'0 0.0
2017-Oct-13 12:57N 45°11' E 036°29'0 0.0
2017-Oct-13 12:27N 45°11' E 036°29'0 0.0
2017-Oct-13 11:57N 45°11' E 036°29'0 0.0
2017-Oct-13 11:27N 45°11' E 036°29'0 0.1
2017-Oct-13 11:00N 45°11' E 036°29'0 0.0
2017-Oct-13 10:27N 45°11' E 036°29'0 0.0
2017-Oct-13 09:58N 45°11' E 036°29'0 0.0
2017-Oct-13 09:23N 45°11' E 036°29'0 0.0
2017-Oct-13 08:40N 45°11' E 036°29'0 0.0
2017-Oct-13 08:26N 45°11' E 036°29'0 0.0
2017-Oct-13 07:59N 45°11' E 036°29'0 0.0
2017-Oct-13 07:10N 45°11' E 036°29'0 0.0
2017-Oct-13 06:58N 45°11' E 036°29'0 0.0
2017-Oct-13 06:28N 45°11' E 036°29'0 0.0
2017-Oct-13 05:58N 45°11' E 036°29'0 0.0
2017-Oct-13 05:28N 45°11' E 036°29'0 0.0
2017-Oct-13 04:58N 45°11' E 036°29'0 0.0
2017-Oct-13 04:25N 45°11' E 036°29'0 0.0
2017-Oct-13 02:19N 45°11' E 036°29'0 0.0
2017-Oct-13 01:58N 45°11' E 036°29'0 0.0
2017-Oct-13 01:29N 45°11' E 036°29'0 0.0
2017-Oct-13 00:49N 45°11' E 036°29'0 0.0
2017-Oct-13 00:25N 45°11' E 036°29'0 0.0
2017-Oct-12 23:58N 45°11' E 036°29'0 0.0
2017-Oct-12 23:25N 45°11' E 036°29'0 0.0
2017-Oct-12 22:13N 45°11' E 036°29'0 0.0
2017-Oct-12 21:50N 45°11' E 036°29'0 0.0
2017-Oct-12 21:28N 45°11' E 036°29'0 0.0
2017-Oct-12 20:58N 45°11' E 036°29'0 0.0
2017-Oct-12 20:13N 45°11' E 036°29'0 0.0
2017-Oct-12 19:55N 45°11' E 036°29'0 0.0
2017-Oct-12 19:19N 45°11' E 036°29'0 0.0
2017-Oct-12 18:46N 45°11' E 036°29'0 0.0
2017-Oct-12 18:22N 45°11' E 036°29'0 0.0
2017-Oct-12 17:58N 45°11' E 036°29'0 0.0
2017-Oct-12 16:16N 45°11' E 036°29'0 0.0
2017-Oct-12 15:49N 45°11' E 036°29'0 0.0
2017-Oct-12 15:29N 45°11' E 036°29'0 0.0
2017-Oct-12 14:46N 45°11' E 036°29'0 0.0
2017-Oct-12 14:20N 45°11' E 036°29'0 0.0
2017-Oct-12 13:58N 45°11' E 036°29'0 0.0
2017-Oct-12 13:22N 45°11' E 036°29'0 0.0
2017-Oct-12 12:59N 45°11' E 036°29'0 0.0
2017-Oct-12 12:25N 45°11' E 036°29'0 0.0
2017-Oct-12 11:49N 45°11' E 036°29'0 0.0
2017-Oct-12 11:28N 45°11' E 036°29'0 0.0
2017-Oct-12 10:32N 45°11' E 036°29'0 0.1
2017-Oct-12 10:28N 45°11' E 036°29'0 0.0
2017-Oct-12 09:59N 45°11' E 036°29'0 0.0
2017-Oct-12 09:28N 45°11' E 036°29'0 0.0
2017-Oct-12 08:56N 45°11' E 036°29'0 0.1
2017-Oct-12 08:28N 45°11' E 036°29'0 0.1
2017-Oct-12 07:58N 45°11' E 036°29'0 0.0
2017-Oct-12 07:29N 45°11' E 036°29'0 0.0
2017-Oct-12 06:58N 45°11' E 036°29'0 0.0
2017-Oct-12 06:29N 45°11' E 036°29'0 0.0
2017-Oct-12 05:56N 45°11' E 036°29'0 0.0
2017-Oct-12 05:28N 45°11' E 036°29'0 0.0
2017-Oct-12 04:58N 45°11' E 036°29'0 0.0
2017-Oct-12 04:29N 45°11' E 036°29'0 0.0
2017-Oct-12 03:52N 45°11' E 036°29'0 0.0
2017-Oct-12 03:23N 45°11' E 036°29'0 0.0
2017-Oct-12 02:59N 45°11' E 036°29'0 0.1
2017-Oct-12 02:29N 45°11' E 036°29'0 0.0
2017-Oct-12 01:59N 45°11' E 036°29'0 0.0
2017-Oct-12 01:28N 45°11' E 036°29'0 0.0
2017-Oct-12 00:55N 45°11' E 036°29'0 0.0
2017-Oct-12 00:26N 45°11' E 036°29'0 0.0
2017-Oct-11 23:56N 45°11' E 036°29'0 0.0
2017-Oct-11 23:28N 45°11' E 036°29'0 0.0
2017-Oct-11 22:59N 45°11' E 036°29'0 0.0
2017-Oct-11 22:29N 45°11' E 036°29'0 0.0
2017-Oct-11 21:59N 45°11' E 036°29'0 0.1
2017-Oct-11 21:28N 45°11' E 036°29'0 0.0
2017-Oct-11 20:56N 45°11' E 036°29'0 0.0
2017-Oct-11 20:28N 45°11' E 036°29'0 0.0
2017-Oct-11 19:58N 45°11' E 036°29'0 0.0
2017-Oct-11 19:29N 45°11' E 036°29'0 0.1
2017-Oct-11 18:59N 45°11' E 036°29'0 0.0
2017-Oct-11 18:28N 45°11' E 036°29'0 0.0
2017-Oct-11 17:58N 45°11' E 036°29'0 0.0
2017-Oct-11 17:28N 45°11' E 036°29'0 0.0
2017-Oct-11 16:58N 45°11' E 036°29'414 8.0
2017-Oct-09 13:20N 40°59' E 028°60'3 8.7
2017-Oct-09 12:59N 40°57' E 028°57'0 0.1
2017-Oct-09 06:52N 40°57' E 028°57'4 9.4
2017-Oct-09 06:29N 40°54' E 028°56'510.1
2017-Oct-09 06:00N 40°51' E 028°50'  

Dump ship's entire track history